Pagina principală
METAR-TAF:

METAR-TAF

Aeroporturi :

Hope, Columbia Britanică, Canada

Latitudine: 49-22N, longitudine: 121-29W, elevație: 39 m

Observații meteo curente

Raportul a fost făcut în urmă cu 55 de minute, la 22:00 UTC
Vânt 2 kt din direcții variabile
Temperatură 11°C
Umiditate 94%
Presiune 1017 hPa
Vizibilitate: 14.5 km
Nori puțini la o înălțime de 3600 picior
Total acoperit la o înălțime de 6000 picior
ploaie slabă

METAR: CYHE 162200Z AUTO VRB02KT 9SM -RA FEW036 OVC060 11/10 A3004 RMK PCPN 0.5MM PAST HR SLP175

Ora: 15:55 (22:55 UTC)


TAF: lipsă

Observații și prognoze meteo pentru peste 4.000 de aeroporturi (rapoarte METAR și TAF).

Stațiile disponibile sunt reprezentate pe hartă prin puncte galbene și roșii.

Țineți indicatorul mouse-ului pe punctul dorit pentru a vedea denumirea stației.

Apoi, faceți clic pentru a vedea observațiile și prognozele meteorologice.

Pentru a schimba harta: Pentru mărire, faceți clic pe butoanele verzi cu cruce neagră; pentru micșorare, pe butonul verde cu o liniuță; pentru hărți învecinate, pe săgețile verzi.


METAR-TAF: